Forage Plot, Arizona (BMGR) Weather observations

Data are for 10 minute period ending at time listed.
 Day   Time   Solar   Ave.   Ave.  Ave.  Vector  Max.   Total    
  of    of     Rad.   Air    Rel.  Wind   Wind   Wind  Precip.   
Year   Day            Temp.  Hum.  Speed  Dir.   Gust            
2026   (MST)  Kw/m2    F      %     mph   deg.    mph    in.     
-----------------------------------------------------------------
 129   16:35   0.51  104.8     7    9.1   247    14.4    0.00 
 129   16:40   0.50  104.1     7    6.0   258    12.1    0.00 
 129   16:45   0.48  104.4     7    7.9   232    13.8    0.00 
 129   16:50   0.47  105.0     7    7.2   217    13.3    0.00 
 129   16:55   0.45  104.9     7    7.5   227    16.0    0.00 
 129   17:00   0.43  104.4     7    8.2   263    14.4    0.00 
 129   17:05   0.42  103.6     7    9.3   261    14.9    0.00 
 129   17:10   0.40  104.2     7    7.8   268    12.1    0.00 
 129   17:15   0.38  104.6     7    6.1   218    12.1    0.00 
 129   17:20   0.37  104.2     7    8.3   230    12.7    0.00 
 129   17:25   0.35  104.0     7    8.5   234    16.0    0.00 
 129   17:30   0.33  103.9     7    8.8   231    13.8    0.00 
 129   17:35   0.32  103.9     7    9.2   233    15.5    0.00 
 129   17:40   0.30  103.3     7    9.1   240    13.8    0.00 
 129   17:45   0.28  102.9     7    7.2   256    13.3    0.00 
 129   17:50   0.27  102.7     7    9.4   259    14.4    0.00 
 129   17:55   0.25  102.5     7    9.5   256    14.9    0.00 
 129   18:00   0.23  102.3     7   10.1   245    13.3    0.00 
 129   18:05   0.22  102.5     7    7.1   249    12.7    0.00 
 129   18:10   0.20  102.2     7    7.9   251    11.6    0.00 
 129   18:15   0.18  102.3     7    5.7   236    12.1    0.00 
 129   18:20   0.17  102.1     7    6.8   250    11.0    0.00 
 129   18:25   0.15  101.4     7    8.7   255    13.8    0.00 
 129   18:30   0.14  101.1     7    7.7   258    12.7    0.00 
 129   18:35   0.12  101.0     7    6.7   244    13.3    0.00 
 129   18:40   0.11  100.7     8    7.6   252    14.4    0.00 
 129   18:45   0.09  100.2     8    8.8   253    13.3    0.00 
 129   18:50   0.08   99.7     8    8.0   257    11.6    0.00 
 129   18:55   0.07   99.3     8    5.8   250     8.2    0.00 
 129   19:00   0.05   99.0     8    6.3   241     9.3    0.00 
 129   19:05   0.04   98.5     8    6.5   245    10.5    0.00 
 129   19:10   0.03   98.0     8    6.0   247     9.3    0.00 
 129   19:15   0.01   97.2     8    4.5   242     7.1    0.00 
 129   19:20   0.01   96.6     8    4.3   237     8.2    0.00 
 129   19:25   0.00   96.4     9    5.7   230     9.9    0.00 
 129   19:30   0.00   96.2     9    4.8   227     8.8    0.00 
 129   19:35   0.00   95.8     9    4.1   220     8.8    0.00 
 129   19:40   0.00   95.0     9    3.1   220     4.9    0.00 
 129   19:45   0.00   94.7     9    5.0   226     8.2    0.00 
 129   19:50   0.00   94.5     9    3.8   220     7.7    0.00 
 129   19:55   0.00   94.4     9    5.3   224     7.7    0.00 
 129   20:00   0.00   94.4     9    4.2   223     6.5    0.00 
 129   20:05   0.00   93.8     9    3.3   219     5.4    0.00 
 129   20:10   0.00   92.9    10    2.5   188     3.8    0.00 
 129   20:15   0.00   91.7    10    3.2   163     3.8    0.00 
 129   20:20   0.00   90.6    10    3.0   136     3.8    0.00 
 129   20:25   0.00   89.2    10    2.9   146     3.8    0.00 
 129   20:30   0.00   89.1    10    3.6   151     4.9    0.00 
 129   20:35   0.00   88.6    10    3.5   133     4.3    0.00 
 129   20:40   0.00   87.5    11    3.8   132     4.9    0.00 
 129   20:45   0.00   88.5    10    5.2   133     7.1    0.00 
 129   20:50   0.00   89.2    10    4.7   136     7.7    0.00 
 129   20:55   0.00   89.1    10    4.3   129     5.4    0.00 
 129   21:00   0.00   88.7    10    4.9   126     6.0    0.00 
 129   21:05   0.00   88.4    10    4.6   123     5.4    0.00 
 129   21:10   0.00   88.3    10    4.9   124     6.0    0.00 
 129   21:15   0.00   88.0    11    4.2   125     5.4    0.00 
 129   21:20   0.00   87.7    11    4.4   125     6.0    0.00 
 129   21:25   0.00   87.7    11    4.0   125     4.9    0.00 
 129   21:30   0.00   87.4    11    4.0   127     4.9    0.00 
 129   21:35   0.00   87.0    11    3.8   120     4.9    0.00 
 129   21:40   0.00   87.1    11    3.8   122     4.9    0.00 
 129   21:45   0.00   87.1    11    3.9   128     6.0    0.00 
 129   21:50   0.00   87.7    11    4.2   129     5.4    0.00 
 129   21:55   0.00   87.7    11    4.8   124     6.0    0.00 
 129   22:00   0.00   87.5    11    4.4   127     6.0    0.00 
 129   22:05   0.00   87.3    11    4.6   131     6.5    0.00 
 129   22:10   0.00   87.1    11    4.6   128     6.0    0.00 
 129   22:15   0.00   86.7    11    4.5   128     6.0    0.00 
 129   22:20   0.00   86.0    11    4.3   130     6.0    0.00 
 129   22:25   0.00   85.7    11    4.9   126     7.1    0.00 
 129   22:30   0.00   85.6    11    3.7   133     5.4    0.00 
 129   22:35   0.00   85.9    11    3.9   131     6.0    0.00 
 129   22:40   0.00   85.8    11    3.1   156     4.3    0.00 
 129   22:45   0.00   85.4    11    4.6   140     6.0    0.00 
 129   22:50   0.00   85.1    11    3.8   139     5.4    0.00 
 129   22:55   0.00   84.4    11    4.3   131     5.4    0.00 
 129   23:00   0.00   84.2    11    3.8   125     6.0    0.00 
 129   23:05   0.00   84.2    11    3.5   133     4.3    0.00 
 129   23:10   0.00   84.4    11    3.4   135     4.9    0.00 
 129   23:15   0.00   84.2    11    4.2   122     5.4    0.00 
 129   23:20   0.00   84.0    11    3.2   120     3.8    0.00 
 129   23:25   0.00   84.0    11    3.5   127     4.3    0.00 
 129   23:30   0.00   84.7    11    3.2   140     4.3    0.00 
 129   23:35   0.00   84.6    11    3.2   138     3.8    0.00 
 129   23:40   0.00   84.2    11    3.0   144     3.8    0.00 
 129   23:45   0.00   83.0    12    3.4   146     4.3    0.00 
 129   23:50   0.00   81.9    12    3.3   142     4.9    0.00 
 129   23:55   0.00   81.0    12    4.2   133     5.4    0.00 
 130    0:00   0.00   80.8    12    4.1   131     5.4    0.00 
 130    0:05   0.00   81.4    12    3.2   136     4.9    0.00 
 130    0:10   0.00   79.5    12    2.3   234     3.2    0.00 
 130    0:15   0.00   76.8    13    3.2   200     4.9    0.00 
 130    0:20   0.00   76.4    13    3.7   166     4.9    0.00 
 130    0:25   0.00   77.2    13    4.3   153     7.1    0.00 
 130    0:30   0.00   79.6    13    5.2   152     7.1    0.00 
 130    0:35   0.00   80.0    14    5.0   158     7.7    0.00 
 130    0:40   0.00   79.8    14    5.1   154     7.7    0.00 
 130    0:45   0.00   79.5    15    4.4   149     6.0    0.00 
 130    0:50   0.00   78.7    16    4.0   141     5.4    0.00 
 130    0:55   0.00   77.9    16    4.5   144     6.0    0.00 
 130    1:00   0.00   77.9    16    4.6   150     6.0    0.00 
 130    1:05   0.00   78.0    16    4.9   141     6.5    0.00 
 130    1:10   0.00   78.3    17    4.7   142     6.5    0.00 
 130    1:15   0.00   78.8    17    4.5   154     6.0    0.00 
 130    1:20   0.00   78.7    17    4.6   154     6.5    0.00 
 130    1:25   0.00   79.2    17    4.9   138     6.5    0.00 
 130    1:30   0.00   79.0    18    4.7   137     6.0    0.00 
 130    1:35   0.00   79.4    18    5.0   144     6.5    0.00 
 130    1:40   0.00   79.4    18    4.7   147     7.1    0.00 
 130    1:45   0.00   78.8    18    4.6   140     6.5    0.00 
 130    1:50   0.00   78.3    19    3.9   142     5.4    0.00 
 130    1:55   0.00   77.9    19    4.3   140     6.0    0.00 
 130    2:00   0.00   77.4    19    2.6   161     3.8    0.00 
 130    2:05   0.00   76.8    20    3.3   160     4.3    0.00 
 130    2:10   0.00   76.2    20    4.5   156     6.0    0.00 
 130    2:15   0.00   76.3    20    3.9   146     4.9    0.00 
 130    2:20   0.00   76.1    20    3.6   146     4.9    0.00 
 130    2:25   0.00   76.1    20    3.4   143     5.4    0.00 
 130    2:30   0.00   77.0    20    4.5   125     6.0    0.00 
 130    2:35   0.00   78.1    20    4.9   141     7.1    0.00 
 130    2:40   0.00   79.6    18    5.0   138     7.1    0.00 
 130    2:45   0.00   79.8    18    4.4   146     5.4    0.00 
 130    2:50   0.00   79.7    18    4.1   136     6.0    0.00 
 130    2:55   0.00   79.0    18    2.0   128     3.8    0.00 
 130    3:00   0.00   77.0    18    2.2   332     3.2    0.00 
 130    3:05   0.00   76.6    19    0.8   191     2.6    0.00 
 130    3:10   0.00   74.9    20    2.0   215     3.8    0.00 
 130    3:15   0.00   72.7    22    0.2   203     2.1    0.00 
 130    3:20   0.00   71.6    22    0.8    31     2.1    0.00 
 130    3:25   0.00   71.4    23    2.4   178     3.8    0.00 
 130    3:30   0.00   70.4    23    3.1   179     3.8    0.00 
 130    3:35   0.00   69.5    24    2.9   172     3.8    0.00 
 130    3:40   0.00   69.0    24    2.3   139     3.8    0.00 
 130    3:45   0.00   69.1    23    3.3   154     4.3    0.00 
 130    3:50   0.00   68.9    23    3.4   154     4.3    0.00 
 130    3:55   0.00   68.8    23    2.9   151     3.8    0.00 
 130    4:00   0.00   68.8    22    3.9   153     4.9    0.00 
 130    4:05   0.00   68.7    22    4.0   164     4.9    0.00 
 130    4:10   0.00   68.6    22    3.7   168     4.9    0.00 
 130    4:15   0.00   68.7    22    3.4   169     4.9    0.00 
 130    4:20   0.00   68.8    22    3.5   159     4.9    0.00 
 130    4:25   0.00   68.9    22    4.1   176     6.0    0.00 
 130    4:30   0.00   69.8    22    5.2   170     7.1    0.00 
 130    4:35   0.00   70.4    21    5.3   154     6.5    0.00 
 130    4:40   0.00   70.8    21    4.8   135     6.5    0.00 
 130    4:45   0.00   70.6    21    4.9   127     7.1    0.00 
 130    4:50   0.00   71.5    20    5.6   130     7.7    0.00 
 130    4:55   0.00   72.9    19    6.0   137     7.7    0.00 
 130    5:00   0.00   73.7    19    5.3   138     7.1    0.00 
 130    5:05   0.00   73.9    19    5.2   128     6.5    0.00 
 130    5:10   0.00   73.7    19    5.9   131     7.7    0.00 
 130    5:15   0.00   74.0    18    6.2   129     8.2    0.00 
 130    5:20   0.00   73.7    18    5.4   138     7.7    0.00 
 130    5:25   0.00   73.1    19    5.5   133     7.1    0.00 
 130    5:30   0.00   73.0    19    5.1   127     7.1    0.00 
 130    5:35   0.00   73.5    19    4.9   127     6.1    0.00 
 130    5:40   0.00   73.6    18    4.7   138     6.5    0.00 
 130    5:45   0.01   73.8    18    4.6   138     6.0    0.00 
 130    5:50   0.01   73.8    18    4.5   145     6.5    0.00 
 130    5:55   0.01   73.8    18    4.7   150     6.5    0.00 
 130    6:00   0.01   73.4    18    4.7   154     6.5    0.00 
 130    6:05   0.03   72.8    18    3.8   150     4.9    0.00 
 130    6:10   0.05   72.5    18    3.9   156     5.4    0.00 
 130    6:15   0.07   72.5    18    4.4   152     6.0    0.00 
 130    6:20   0.08   72.8    18    3.9   144     5.4    0.00 
 130    6:25   0.09   73.7    18    3.3   128     4.3    0.00 
 130    6:30   0.10   74.9    17    3.4   145     5.4    0.00 
 130    6:35   0.12   75.3    17    3.4   144     5.4    0.00 
 130    6:40   0.13   76.2    16    3.7   133     4.9    0.00 
 130    6:45   0.15   77.2    16    3.7   141     5.4    0.00 
 130    6:50   0.16   77.5    16    4.6   138     7.1    0.00 
 130    6:55   0.18   77.4    16    5.5   136     7.7    0.00 
 130    7:00   0.19   78.1    16    4.9   144     7.1    0.00 
 130    7:05   0.21   78.7    15    4.2   145     6.0    0.00 
 130    7:10   0.23   80.1    15    3.4   152     6.0    0.00 
 130    7:15   0.24   81.3    14    4.1   150     6.5    0.00 
 130    7:20   0.26   81.9    14    4.4   152     7.1    0.00 
 130    7:25   0.27   82.3    14    4.8   151     6.5    0.00 
 130    7:30   0.29   82.8    14    4.7   156     6.5    0.00 
 130    7:35   0.31   83.3    13    4.8   141     7.7    0.00 
 130    7:40   0.32   84.1    13    4.6   148     6.5    0.00 
 130    7:45   0.34   84.8    13    4.4   146     6.5    0.00 
 130    7:50   0.36   85.6    13    3.8   151     5.4    0.00 
 130    7:55   0.38   86.3    12    3.9   151     6.0    0.00 
 130    8:00   0.39   86.5    13    4.0   146     5.4    0.00 
 130    8:05   0.41   87.2    12    3.3   147     4.9    0.00 
 130    8:10   0.42   87.5    12    4.1   162     5.4    0.00 
 130    8:15   0.44   87.9    12    4.5   165     6.5    0.00 
 130    8:20   0.46   88.3    12    4.8   158     6.5    0.00 
 130    8:25   0.47   89.1    12    5.0   152     7.7    0.00 
 130    8:30   0.49   89.3    12    5.6   144     7.7    0.00 
 130    8:35   0.50   89.9    12    5.2   140     7.7    0.00 
 130    8:40   0.52   90.2    12    5.7   156     7.7    0.00 
 130    8:45   0.54   90.7    12    5.2   153     7.7    0.00 
 130    8:50   0.55   91.1    12    4.8   138     7.1    0.00 
 130    8:55   0.57   91.7    11    4.8   139     7.7    0.00 
 130    9:00   0.58   92.1    11    4.3   161     6.5    0.00 
 130    9:05   0.60   92.7    10    3.9   151     6.5    0.00 
 130    9:10   0.61   93.4    10    4.0   147     6.5    0.00 
 130    9:15   0.62   93.9    10    4.4   155     6.0    0.00 
 130    9:20   0.64   93.7    10    4.6   155     7.1    0.00 
 130    9:25   0.65   94.2    10    4.1   151     6.5    0.00 
 130    9:30   0.67   95.2    10    3.8   198     7.1    0.00 
 130    9:35   0.68   95.6    10    3.6   158     6.5    0.00 
 130    9:40   0.69   95.4    10    3.7   161     7.1    0.00 
 130    9:45   0.70   95.3    10    3.7   166     6.5    0.00 
 130    9:50   0.72   96.2     9    3.2   185     6.0    0.00 
 130    9:55   0.73   97.2     9    2.8   225     6.0    0.00 
 130   10:00   0.74   97.2     9    3.3   188     6.5    0.00 
 130   10:05   0.75   97.6     9    3.8   171     7.1    0.00 
 130   10:10   0.76   97.4     9    2.2   178     5.4    0.00 
 130   10:15   0.77   98.0     9    3.1   199     6.0    0.00 
 130   10:20   0.78   97.8     9    4.5   149     8.2    0.00 
 130   10:25   0.79   97.8     9    4.5   178     8.8    0.00 
 130   10:30   0.81   98.5     8    3.9   140     9.3    0.00 
 130   10:35   0.81   98.5     8    3.7   160     6.5    0.00 
 130   10:40   0.82   99.2     8    1.1   130     4.3    0.00 
 130   10:45   0.83   99.8     8    3.6   132     6.0    0.00 
 130   10:50   0.84   99.8     8    3.1    96     7.1    0.00 
 130   10:55   0.85   99.8     8    4.2   131     8.2    0.00 
 130   11:00   0.86   99.8     8    3.1   117     6.0    0.00 
 130   11:05   0.87  100.1     8    1.8   179     4.3    0.00 
 130   11:10   0.87  100.5     8    2.6    39     5.4    0.00 
 130   11:15   0.88  101.1     8    2.9    24     6.5    0.00 
 130   11:20   0.89  101.5     8    1.8     8     4.3    0.00 
 130   11:25   0.89  101.5     8    4.0    98     6.5    0.00 
 130   11:30   0.90  101.3     8    3.9   170     8.2    0.00 
 130   11:35   0.90  101.6     8    2.9    82     6.5    0.00 
 130   11:40   0.91  102.0     7    3.3    87     6.0    0.00 
 130   11:45   0.91  101.8     8    3.1   341     5.4    0.00 
 130   11:50   0.92  102.1     8    1.3   246     6.0    0.00 
 130   11:55   0.92  103.9     7    6.0   228     9.3    0.00 
 130   12:00   0.92  103.3     8    4.3   229     8.8    0.00 
 130   12:05   0.93  103.1     7    2.6   203    11.6    0.00 
 130   12:10   0.93  104.0     7    3.4   220     7.7    0.00 
 130   12:15   0.93  104.4     7    5.2   265     9.3    0.00 
 130   12:20   0.93  103.4     7    4.5   197     8.2    0.00 
 130   12:25   0.94  104.3     7    3.9   219     9.9    0.00 
 130   12:30   0.94  103.5     7    4.6   169     9.3    0.00 
 130   12:35   0.94  103.9     7    6.8   174    10.5    0.00 
 130   12:40   0.94  103.2     7    2.8   290     4.9    0.00 
 130   12:45   0.94  103.7     7    4.1   240     9.3    0.00 
 130   12:50   0.94  104.0     7    4.9   193     9.9    0.00 
 130   12:55   0.93  104.9     7    3.6   207     6.5    0.00 
 130   13:00   0.93  105.8     7    3.5   225     7.7    0.00 
 130   13:05   0.93  105.2     7    2.7   202     6.5    0.00 
 130   13:10   0.93  104.8     7    5.2   165    16.0    0.00 
 130   13:15   0.92  105.3     7    5.2   221     8.8    0.00 
 130   13:20   0.92  105.9     7    5.1   235     8.8    0.00 
 130   13:25   0.92  106.8     6    7.1   221    14.4    0.00 
 130   13:30   0.92  106.8     6    5.0   227     8.2    0.00 
 130   13:35   0.91  106.2     6    3.8   203     9.3    0.00 
 130   13:40   0.91  105.5     7    4.2   140     9.9    0.00 
 130   13:45   0.90  105.1     7    5.3   152    16.0    0.00 
 130   13:50   0.89  106.6     6    7.7   194    13.3    0.00 
 130   13:55   0.89  107.1     6    4.6   222    12.1    0.00 
 130   14:00   0.88  106.2     6    4.6   190    12.7    0.00 
 130   14:05   0.88  105.4     6    4.4   202     8.2    0.00 
 130   14:10   0.87  105.6     7    5.3   190    11.0    0.00 
 130   14:15   0.86  105.4     7    1.8   318     4.9    0.00 
 130   14:20   0.85  105.9     7    4.8   165    13.8    0.00 
 130   14:25   0.84  106.7     6    9.0   180    16.0    0.00 
 130   14:30   0.83  106.1     7    7.2   188    12.1    0.00 
 130   14:35   0.82  106.1     7    5.9   207    10.5    0.00 
 130   14:40   0.81  106.0     7    9.2   168    14.9    0.00 
 130   14:45   0.80  106.4     7    9.7   156    15.5    0.00 
 130   14:50   0.79  105.7     7    4.8   167    12.1    0.00 
 130   14:55   0.78  105.9     7    4.7   253    10.5    0.00 
 130   15:00   0.77  106.3     7    4.7   243     8.2    0.00 
 130   15:05   0.76  105.4     7    4.4   134     7.1    0.00 
 130   15:10   0.75  105.1     7    2.7   157     8.8    0.00 
 130   15:15   0.73  107.1     6    7.0   266    11.0    0.00 
 130   15:20   0.72  107.3     6    7.1   252    12.7    0.00 
 130   15:25   0.71  107.4     6    7.7   246    13.8    0.00 
 130   15:30   0.70  107.0     7   11.0   261    18.9    0.00 
 130   15:35   0.68  107.1     7   12.2   254    19.4    0.00 
 130   15:40   0.67  106.4     7    8.8   268    15.5    0.00 
 130   15:45   0.66  105.7     7    4.1   323     8.8    0.00 
 130   15:50   0.64  106.2     7    7.3   260    12.7    0.00 
 130   15:55   0.63  106.2     7    7.7   255    13.8    0.00 
 130   16:00   0.62  106.7     7    7.1   253    15.5    0.00 
 130   16:05   0.60  107.2     7    8.2   252    13.8    0.00 
 130   16:10   0.59  107.4     7    9.2   243    15.5    0.00 
 130   16:15   0.57  107.2     7    7.4   215    13.8    0.00 
 130   16:20   0.56  106.9     7    6.7   217    11.6    0.00 
 130   16:25   0.54  105.9     7    5.9   187    13.3    0.00 
 130   16:30   0.53  106.2     7    6.2   271    13.3    0.00 

Return to Forage Plot graphs page.


Western Regional Climate Center,wrcc@dri.edu